Time;durP1;ratioP1;P1;durP2;ratioP2;P2;SDS_P1;SDS_P2;PMS_P1;PMS_P2;Temp;Humidity;BMP_temperature;BMP_pressure;BME280_temperature;BME280_humidity;BME280_pressure;Samples;Min_cycle;Max_cycle;Signal;HPM_P1;HPM_P2
2021/12/03 00:00:34;;;;;;;9.33;4.17;;;1.70;99.90;;;;;;4900478;29;20209;-81
2021/12/03 00:03:00;;;;;;;9.67;4.77;;;1.60;99.90;;;;;;4883473;29;20188;-80
2021/12/03 00:05:26;;;;;;;10.97;4.17;;;1.60;99.90;;;;;;4883406;29;20242;-80
2021/12/03 00:07:52;;;;;;;11.37;4.60;;;1.70;99.90;;;;;;4883330;29;20189;-80
2021/12/03 00:10:22;;;;;;;12.97;4.47;;;1.70;99.90;;;;;;4883390;29;20256;-81
2021/12/03 00:12:49;;;;;;;9.03;4.37;;;1.70;99.90;;;;;;4883694;29;20550;-81
2021/12/03 00:15:15;;;;;;;11.40;4.10;;;1.60;99.90;;;;;;4899762;29;20189;-81
2021/12/03 00:17:41;;;;;;;12.53;4.77;;;1.50;99.90;;;;;;4900193;29;20187;-81
2021/12/03 00:20:10;;;;;;;8.93;4.93;;;1.50;99.90;;;;;;4900190;29;20193;-81
2021/12/03 00:22:35;;;;;;;9.33;4.50;;;1.50;99.90;;;;;;4900217;29;20181;-81
2021/12/03 00:25:02;;;;;;;9.20;3.80;;;1.50;99.90;;;;;;4867505;29;20212;-81
2021/12/03 00:27:27;;;;;;;9.90;4.20;;;1.50;99.90;;;;;;4900117;29;20188;-81
2021/12/03 00:29:53;;;;;;;12.60;4.60;;;1.40;99.90;;;;;;4883316;29;20209;-82
2021/12/03 00:32:19;;;;;;;11.17;4.50;;;1.40;99.90;;;;;;4882712;29;20189;-81
2021/12/03 00:34:44;;;;;;;9.80;4.43;;;1.50;99.90;;;;;;4883038;29;20196;-81
2021/12/03 00:37:10;;;;;;;13.30;4.37;;;1.50;99.90;;;;;;4899684;29;20557;-81
2021/12/03 00:39:36;;;;;;;16.10;4.40;;;1.40;99.90;;;;;;4899685;29;20267;-81
2021/12/03 00:42:03;;;;;;;9.13;4.40;;;1.50;99.90;;;;;;4899314;29;20627;-82
2021/12/03 00:44:30;;;;;;;11.33;5.10;;;1.50;99.90;;;;;;4882885;29;20193;-81
2021/12/03 00:46:58;;;;;;;10.07;4.30;;;1.50;99.90;;;;;;4899169;29;20193;-81
2021/12/03 00:49:24;;;;;;;11.27;4.63;;;1.40;99.90;;;;;;4898574;29;20216;-81
2021/12/03 00:51:51;;;;;;;7.93;3.90;;;1.40;99.90;;;;;;4899366;29;20177;-80
2021/12/03 00:54:17;;;;;;;10.10;4.77;;;1.50;99.90;;;;;;4899113;29;20212;-81
2021/12/03 00:56:43;;;;;;;8.63;4.30;;;1.50;99.90;;;;;;4882312;29;20192;-81
2021/12/03 00:59:09;;;;;;;14.93;5.17;;;1.50;99.90;;;;;;4899113;29;20181;-82
2021/12/03 01:01:35;;;;;;;10.43;4.90;;;1.50;99.90;;;;;;4882791;29;20185;-81
2021/12/03 01:04:02;;;;;;;9.17;4.50;;;1.50;99.90;;;;;;4882513;29;20181;-82
2021/12/03 01:06:27;;;;;;;12.37;4.43;;;1.40;99.90;;;;;;4899081;29;20188;-81
2021/12/03 01:08:53;;;;;;;8.83;4.23;;;1.50;99.90;;;;;;4866788;29;20213;-81
2021/12/03 01:11:19;;;;;;;11.10;4.83;;;1.50;99.90;;;;;;4898930;29;20239;-81
2021/12/03 01:13:46;;;;;;;9.03;4.50;;;1.50;99.90;;;;;;4881921;29;20182;-82
2021/12/03 01:16:12;;;;;;;7.97;4.53;;;1.50;99.90;;;;;;4898500;29;20177;-81
2021/12/03 01:18:40;;;;;;;11.37;4.50;;;1.50;99.90;;;;;;4882132;29;20181;-81
2021/12/03 01:21:07;;;;;;;10.50;4.33;;;1.40;99.90;;;;;;4882143;29;20186;-81
2021/12/03 01:23:33;;;;;;;11.10;5.07;;;1.40;99.90;;;;;;4881957;29;20275;-82
2021/12/03 01:25:59;;;;;;;11.60;4.37;;;1.50;99.90;;;;;;4898489;29;20189;-81
2021/12/03 01:28:28;;;;;;;10.77;5.03;;;1.50;99.90;;;;;;4881934;29;20225;-82
2021/12/03 01:30:58;;;;;;;10.50;4.60;;;1.40;99.90;;;;;;4898914;29;20182;-82
2021/12/03 01:33:24;;;;;;;10.50;4.63;;;1.40;99.90;;;;;;4898565;29;20185;-82
2021/12/03 01:35:50;;;;;;;12.70;5.17;;;1.50;99.90;;;;;;4898862;29;20268;-82
2021/12/03 01:38:16;;;;;;;9.37;4.30;;;1.40;99.90;;;;;;4865844;29;20233;-82
2021/12/03 01:40:42;;;;;;;11.13;5.03;;;1.40;99.90;;;;;;4881752;29;20697;-81
2021/12/03 01:43:13;;;;;;;7.27;3.77;;;1.40;99.90;;;;;;4881522;29;20276;-83
2021/12/03 01:45:41;;;;;;;10.77;4.27;;;1.40;99.90;;;;;;4882181;29;20189;-80
2021/12/03 01:48:07;;;;;;;10.80;4.70;;;1.40;99.90;;;;;;4881582;29;20185;-82
2021/12/03 01:50:40;;;;;;;9.97;4.37;;;1.40;99.90;;;;;;4898082;29;20241;-81
2021/12/03 01:53:08;;;;;;;10.43;4.60;;;1.30;99.90;;;;;;4898553;29;20169;-81
2021/12/03 01:55:34;;;;;;;8.77;3.93;;;1.30;99.90;;;;;;4898288;29;20189;-81
2021/12/03 01:58:00;;;;;;;11.30;4.83;;;1.30;99.90;;;;;;4898531;29;20177;-81
2021/12/03 02:00:32;;;;;;;8.53;4.47;;;1.30;99.90;;;;;;4881115;29;20187;-81
2021/12/03 02:02:59;;;;;;;10.00;4.40;;;1.20;99.90;;;;;;4881495;29;20213;-81
2021/12/03 02:05:24;;;;;;;12.20;4.80;;;1.30;99.90;;;;;;4898201;29;20193;-81
2021/12/03 02:07:51;;;;;;;10.37;4.93;;;1.20;99.90;;;;;;4865986;29;20230;-81
2021/12/03 02:10:20;;;;;;;7.23;4.33;;;1.10;99.90;;;;;;4897976;29;20302;-81
2021/12/03 02:12:46;;;;;;;13.10;4.80;;;1.10;99.90;;;;;;4898683;29;20189;-81
2021/12/03 02:15:12;;;;;;;8.23;4.13;;;1.10;99.90;;;;;;4897942;29;20224;-84
2021/12/03 02:17:38;;;;;;;9.73;4.73;;;1.10;99.90;;;;;;4898335;29;20268;-81
2021/12/03 02:20:09;;;;;;;12.13;4.73;;;1.10;99.90;;;;;;4881319;29;20695;-80
2021/12/03 02:22:37;;;;;;;8.30;4.47;;;1.10;99.90;;;;;;4898290;29;20264;-81
2021/12/03 02:25:04;;;;;;;9.90;4.53;;;1.10;99.90;;;;;;4881406;29;20185;-80
2021/12/03 02:27:30;;;;;;;7.83;4.37;;;1.10;99.90;;;;;;4881041;29;20181;-80
2021/12/03 02:29:55;;;;;;;7.83;4.70;;;1.10;99.90;;;;;;4881492;29;20332;-82
2021/12/03 02:32:21;;;;;;;12.03;4.07;;;1.10;99.90;;;;;;4897910;29;20588;-81
2021/12/03 02:34:47;;;;;;;9.77;5.03;;;1.00;99.90;;;;;;4897848;29;20237;-82
2021/12/03 02:37:12;;;;;;;10.27;5.47;;;1.00;99.90;;;;;;4881191;29;20687;-82
2021/12/03 02:39:38;;;;;;;12.07;4.53;;;1.00;99.90;;;;;;4897669;29;20247;-82
2021/12/03 02:42:04;;;;;;;12.07;5.27;;;1.00;99.90;;;;;;4881564;29;20200;-81
2021/12/03 02:44:31;;;;;;;14.63;5.40;;;0.90;99.90;;;;;;4897795;29;20178;-82
2021/12/03 02:46:56;;;;;;;9.70;4.27;;;0.90;99.90;;;;;;4881538;29;20186;-83
2021/12/03 02:49:22;;;;;;;12.30;4.83;;;0.90;99.90;;;;;;4881259;29;20225;-82
2021/12/03 02:51:48;;;;;;;12.43;4.33;;;0.80;99.90;;;;;;4881427;29;20638;-82
2021/12/03 02:54:13;;;;;;;8.93;4.53;;;0.80;99.90;;;;;;4865437;29;20197;-82
2021/12/03 02:56:40;;;;;;;13.70;6.17;;;0.80;99.90;;;;;;4880988;29;20189;-81
2021/12/03 02:59:06;;;;;;;8.77;4.67;;;0.80;99.90;;;;;;4881346;29;20614;-82
2021/12/03 03:01:32;;;;;;;11.63;5.57;;;0.80;99.90;;;;;;4865245;29;20185;-81
2021/12/03 03:03:58;;;;;;;11.97;5.03;;;0.80;99.90;;;;;;4881315;29;20216;-80
2021/12/03 03:06:24;;;;;;;10.03;4.43;;;0.80;99.90;;;;;;4850248;29;20568;-82
2021/12/03 03:08:49;;;;;;;11.57;4.67;;;0.70;99.90;;;;;;4897682;29;20213;-81
2021/12/03 03:11:21;;;;;;;9.93;5.23;;;0.80;99.90;;;;;;4866967;29;20635;-81
2021/12/03 03:13:47;;;;;;;12.77;5.00;;;0.70;99.90;;;;;;4886094;29;20200;-81
2021/12/03 03:16:15;;;;;;;11.23;5.17;;;0.70;99.90;;;;;;4904888;29;20275;-81
2021/12/03 03:18:41;;;;;;;12.90;4.80;;;0.70;99.90;;;;;;4903025;29;20736;-82
2021/12/03 03:21:07;;;;;;;11.87;5.40;;;0.70;99.90;;;;;;4884293;29;20208;-81
2021/12/03 03:23:35;;;;;;;12.77;5.47;;;0.60;99.90;;;;;;4868746;29;20190;-82
2021/12/03 03:26:02;;;;;;;9.60;5.40;;;0.50;99.90;;;;;;4884583;29;20224;-81
2021/12/03 03:28:28;;;;;;;11.73;5.43;;;0.60;99.90;;;;;;4884082;29;20233;-81
2021/12/03 03:30:55;;;;;;;9.93;5.07;;;0.60;99.90;;;;;;4901516;29;20184;-81
2021/12/03 03:33:22;;;;;;;14.67;5.40;;;0.60;99.90;;;;;;4901115;29;20184;-86
2021/12/03 03:35:47;;;;;;;10.30;5.20;;;0.60;99.90;;;;;;4900927;29;20189;-81
2021/12/03 03:38:14;;;;;;;9.80;4.93;;;0.60;99.90;;;;;;4884258;29;20237;-80
2021/12/03 03:40:41;;;;;;;11.27;4.77;;;0.60;99.90;;;;;;4884207;29;20190;-81
2021/12/03 03:43:08;;;;;;;9.67;4.87;;;0.60;99.90;;;;;;4883918;29;20220;-81
2021/12/03 03:45:36;;;;;;;14.30;5.20;;;0.60;99.90;;;;;;4900708;29;20180;-80
2021/12/03 03:48:03;;;;;;;12.97;5.47;;;0.60;99.90;;;;;;4883749;29;20661;-81
2021/12/03 03:50:29;;;;;;;11.43;5.93;;;0.60;99.90;;;;;;4900448;29;20227;-81
2021/12/03 03:52:57;;;;;;;12.27;5.60;;;0.60;99.90;;;;;;4900874;29;20268;-81
2021/12/03 03:55:24;;;;;;;11.17;5.37;;;0.60;99.90;;;;;;4900726;29;20178;-80
2021/12/03 03:57:52;;;;;;;9.33;5.00;;;0.60;99.90;;;;;;4883852;29;20332;-81
2021/12/03 04:00:21;;;;;;;12.37;5.97;;;0.60;99.90;;;;;;4900809;29;20265;-81
2021/12/03 04:02:47;;;;;;;15.40;5.67;;;0.60;99.90;;;;;;4900747;29;20185;-81
2021/12/03 04:05:13;;;;;;;12.20;5.60;;;0.60;99.90;;;;;;4900571;29;20665;-81
2021/12/03 04:07:40;;;;;;;15.40;5.00;;;0.50;99.90;;;;;;4900486;29;20212;-81
2021/12/03 04:10:07;;;;;;;8.10;4.63;;;0.50;99.90;;;;;;4900484;29;20686;-81
2021/12/03 04:12:33;;;;;;;14.93;5.63;;;0.50;99.90;;;;;;4867816;29;20201;-80
2021/12/03 04:14:59;;;;;;;10.00;4.80;;;0.60;99.90;;;;;;4868038;29;20185;-81
2021/12/03 04:17:26;;;;;;;9.37;5.00;;;0.60;99.90;;;;;;4883991;29;20293;-80
2021/12/03 04:19:51;;;;;;;13.37;5.10;;;0.50;99.90;;;;;;4883962;29;20268;-80
2021/12/03 04:22:23;;;;;;;10.67;4.57;;;0.50;99.90;;;;;;4867928;29;20612;-81
2021/12/03 04:24:49;;;;;;;12.90;5.50;;;0.50;99.90;;;;;;4869487;29;20219;-80
2021/12/03 04:27:14;;;;;;;11.90;5.70;;;0.50;99.90;;;;;;4900296;29;20232;-81
2021/12/03 04:29:40;;;;;;;14.30;4.90;;;0.50;99.90;;;;;;4883408;29;20575;-81
2021/12/03 04:32:08;;;;;;;13.23;5.03;;;0.50;99.90;;;;;;4883257;29;20197;-81
2021/12/03 04:34:34;;;;;;;11.17;5.97;;;0.50;99.90;;;;;;4899947;29;20217;-82
2021/12/03 04:37:00;;;;;;;12.50;5.37;;;0.50;99.90;;;;;;4899786;29;20192;-81
2021/12/03 04:39:26;;;;;;;13.40;5.70;;;0.60;99.90;;;;;;4899523;29;20597;-84
2021/12/03 04:41:51;;;;;;;10.50;5.70;;;0.60;99.90;;;;;;4883408;29;20192;-81
2021/12/03 04:44:17;;;;;;;8.77;5.33;;;0.60;99.90;;;;;;4883358;29;20270;-81
2021/12/03 04:46:43;;;;;;;12.77;5.73;;;0.60;99.90;;;;;;4882926;29;20590;-81
2021/12/03 04:49:08;;;;;;;12.93;5.70;;;0.60;99.90;;;;;;4883103;29;20207;-80
2021/12/03 04:51:36;;;;;;;7.33;5.00;;;0.60;99.90;;;;;;4883734;29;20323;-80
2021/12/03 04:54:02;;;;;;;13.40;5.27;;;0.60;99.90;;;;;;4869975;29;20206;-81
2021/12/03 04:56:29;;;;;;;11.07;4.97;;;0.60;99.90;;;;;;4886706;29;20188;-80
2021/12/03 04:58:54;;;;;;;12.47;6.40;;;0.60;99.90;;;;;;4906956;29;20228;-81
2021/12/03 05:01:21;;;;;;;9.37;5.27;;;0.60;99.90;;;;;;4885189;29;20229;-81
2021/12/03 05:03:46;;;;;;;13.40;5.30;;;0.60;99.90;;;;;;4886729;29;20184;-81
2021/12/03 05:06:16;;;;;;;14.23;5.37;;;0.70;99.90;;;;;;4870911;29;20181;-80
2021/12/03 05:08:42;;;;;;;10.17;4.90;;;0.60;99.90;;;;;;4902538;29;20590;-80
2021/12/03 05:11:08;;;;;;;11.07;5.07;;;0.60;99.90;;;;;;4903059;29;20189;-81
2021/12/03 05:13:36;;;;;;;10.57;5.70;;;0.50;99.90;;;;;;4910927;29;20188;-82
2021/12/03 05:16:04;;;;;;;14.27;5.87;;;0.50;99.90;;;;;;4922780;29;20197;-83
2021/12/03 05:18:31;;;;;;;7.47;5.47;;;0.50;99.90;;;;;;4922720;29;20199;-81
2021/12/03 05:21:00;;;;;;;12.03;5.23;;;0.50;99.90;;;;;;4922770;29;20188;-83
2021/12/03 05:23:28;;;;;;;12.80;5.10;;;0.40;99.90;;;;;;4922824;29;20176;-82
2021/12/03 05:25:54;;;;;;;10.57;5.40;;;0.40;99.90;;;;;;4904790;29;20181;-80
2021/12/03 05:28:21;;;;;;;10.13;5.40;;;0.40;99.90;;;;;;4902473;29;20237;-81
2021/12/03 05:30:47;;;;;;;10.23;5.33;;;0.50;99.90;;;;;;4895924;29;20189;-88
2021/12/03 05:33:13;;;;;;;11.87;5.67;;;0.50;99.90;;;;;;4905844;29;20190;-82
2021/12/03 05:35:39;;;;;;;10.93;5.37;;;0.50;99.90;;;;;;4889898;29;20180;-89
2021/12/03 05:38:05;;;;;;;9.77;5.20;;;0.50;99.90;;;;;;4904597;29;20192;-85
2021/12/03 05:40:32;;;;;;;10.97;5.93;;;0.50;99.90;;;;;;4886724;29;20698;-84
2021/12/03 05:42:58;;;;;;;11.30;5.53;;;0.40;99.90;;;;;;4880020;29;20673;-82
2021/12/03 05:45:29;;;;;;;10.60;5.80;;;0.40;99.90;;;;;;4879703;29;20181;-82
2021/12/03 05:47:55;;;;;;;9.37;5.23;;;0.50;99.90;;;;;;4875526;29;20627;-82
2021/12/03 05:50:21;;;;;;;13.77;6.17;;;0.50;99.90;;;;;;4896536;29;20224;-82
2021/12/03 05:52:49;;;;;;;17.13;6.30;;;0.60;99.90;;;;;;4892166;29;20666;-83
2021/12/03 05:55:16;;;;;;;11.33;5.73;;;0.60;99.90;;;;;;4895039;29;20201;-81
2021/12/03 05:57:43;;;;;;;8.33;5.87;;;0.70;99.90;;;;;;4875124;29;20186;-82
2021/12/03 06:00:23;;;;;;;9.80;5.47;;;0.60;99.90;;;;;;4890204;29;20193;-82
2021/12/03 06:02:49;;;;;;;12.63;5.73;;;0.60;99.90;;;;;;4876347;29;20567;-81
2021/12/03 06:05:15;;;;;;;16.43;7.37;;;0.50;99.90;;;;;;4879310;29;20196;-81
2021/12/03 06:07:41;;;;;;;14.53;5.90;;;0.40;99.90;;;;;;4893934;29;20197;-82
2021/12/03 06:10:07;;;;;;;13.73;6.33;;;0.40;99.90;;;;;;4894314;29;20230;-82
2021/12/03 06:12:33;;;;;;;12.53;6.00;;;0.50;99.90;;;;;;4895274;29;20191;-82
2021/12/03 06:14:59;;;;;;;13.77;6.47;;;0.50;99.90;;;;;;4879037;29;20603;-82
2021/12/03 06:17:25;;;;;;;8.30;5.10;;;-0.20;99.90;;;;;;4878828;29;20193;-81
2021/12/03 06:19:51;;;;;;;11.83;5.97;;;0.50;99.90;;;;;;4895102;29;20580;-81
2021/12/03 06:22:16;;;;;;;11.93;5.20;;;0.50;99.90;;;;;;4892551;29;20197;-80
2021/12/03 06:24:42;;;;;;;9.53;5.43;;;0.50;99.90;;;;;;4894855;29;20233;-81
2021/12/03 06:27:08;;;;;;;9.07;6.03;;;0.50;99.90;;;;;;4894163;29;20223;-81
2021/12/03 06:29:33;;;;;;;11.83;6.93;;;0.50;99.90;;;;;;4894687;29;20244;-81
2021/12/03 06:31:59;;;;;;;10.07;5.97;;;0.50;99.90;;;;;;4893866;29;20193;-82
2021/12/03 06:34:25;;;;;;;9.93;6.33;;;0.40;99.90;;;;;;4896350;29;20193;-80
2021/12/03 06:36:51;;;;;;;11.33;5.57;;;0.40;99.90;;;;;;4878134;29;20197;-82
2021/12/03 06:39:17;;;;;;;12.13;5.93;;;0.50;99.90;;;;;;4866689;29;20790;-81
2021/12/03 06:41:42;;;;;;;12.63;6.23;;;0.50;99.90;;;;;;4860858;29;20215;-82
2021/12/03 06:44:08;;;;;;;10.67;6.33;;;0.50;99.90;;;;;;4859903;29;20664;-80
2021/12/03 06:46:35;;;;;;;13.43;6.97;;;0.50;99.90;;;;;;4846885;29;20560;-81
2021/12/03 06:49:02;;;;;;;14.90;6.07;;;0.50;99.90;;;;;;4861469;29;20218;-80
2021/12/03 06:51:29;;;;;;;10.73;6.23;;;0.50;99.90;;;;;;4872206;29;20194;-81
2021/12/03 06:54:02;;;;;;;7.93;5.87;;;0.20;99.90;;;;;;4873385;29;20254;-81
2021/12/03 06:56:47;;;;;;;9.80;5.87;;;0.50;99.90;;;;;;4850270;29;20217;-80
2021/12/03 06:59:17;;;;;;;11.90;6.70;;;0.50;99.90;;;;;;4861155;29;20210;-80
2021/12/03 07:01:43;;;;;;;11.07;6.43;;;0.50;99.90;;;;;;4862465;29;20195;-81
2021/12/03 07:04:09;;;;;;;12.17;6.50;;;0.60;99.90;;;;;;4861744;29;20777;-80
2021/12/03 07:06:35;;;;;;;10.70;5.90;;;0.60;99.90;;;;;;4857043;29;20272;-81
2021/12/03 07:09:01;;;;;;;11.93;6.97;;;0.60;99.90;;;;;;4865837;29;20250;-80
2021/12/03 07:11:27;;;;;;;10.97;7.03;;;0.50;99.90;;;;;;4862590;29;20671;-80
2021/12/03 07:13:53;;;;;;;15.40;6.00;;;0.50;99.90;;;;;;4835868;29;20219;-82
2021/12/03 07:16:19;;;;;;;11.97;6.27;;;0.50;99.90;;;;;;4861787;29;20203;-81
2021/12/03 07:18:45;;;;;;;16.67;7.30;;;0.50;99.90;;;;;;4859998;29;20204;-81
2021/12/03 07:21:11;;;;;;;8.93;5.80;;;0.60;99.90;;;;;;4862709;29;20194;-81
2021/12/03 07:23:37;;;;;;;14.77;6.90;;;0.50;99.90;;;;;;4862278;29;20225;-82
2021/12/03 07:26:03;;;;;;;17.37;7.03;;;0.50;99.90;;;;;;4876996;29;20644;-81
2021/12/03 07:28:30;;;;;;;10.20;6.13;;;0.50;99.90;;;;;;4843342;29;20237;-81
2021/12/03 07:30:56;;;;;;;11.43;6.53;;;0.50;99.90;;;;;;4872238;29;20204;-82
2021/12/03 07:33:22;;;;;;;11.07;6.97;;;0.40;99.90;;;;;;4876131;29;20608;-81
2021/12/03 07:35:48;;;;;;;11.50;5.87;;;0.40;99.90;;;;;;4875566;29;20224;-83
2021/12/03 07:38:17;;;;;;;10.00;6.30;;;0.40;99.90;;;;;;4873922;29;20205;-81
2021/12/03 07:40:48;;;;;;;13.03;7.60;;;0.40;99.90;;;;;;4882894;29;20189;-81
2021/12/03 07:43:20;;;;;;;16.03;6.43;;;0.50;99.90;;;;;;4881734;29;20296;-81
2021/12/03 07:45:47;;;;;;;11.50;5.93;;;0.50;99.90;;;;;;4898999;29;20200;-82
2021/12/03 07:48:13;;;;;;;12.80;6.30;;;0.60;99.90;;;;;;4881525;29;20276;-82
2021/12/03 07:50:41;;;;;;;13.73;6.50;;;0.60;99.90;;;;;;4897204;29;20288;-82
2021/12/03 07:53:08;;;;;;;11.70;6.50;;;0.60;99.90;;;;;;4897726;29;20264;-82
2021/12/03 07:55:34;;;;;;;13.17;6.63;;;0.60;99.90;;;;;;4899557;29;20193;-82
2021/12/03 07:58:01;;;;;;;12.37;7.27;;;0.80;99.90;;;;;;4888886;29;20190;-83
2021/12/03 08:00:27;;;;;;;19.30;7.07;;;0.80;99.90;;;;;;4893911;29;20272;-83
2021/12/03 08:02:53;;;;;;;21.43;7.53;;;0.80;99.90;;;;;;4898470;29;20272;-82
2021/12/03 08:05:19;;;;;;;14.00;7.73;;;0.80;99.90;;;;;;4881362;29;20213;-82
2021/12/03 08:07:49;;;;;;;18.87;7.37;;;0.80;99.90;;;;;;4896518;29;20629;-83
2021/12/03 08:10:15;;;;;;;23.87;9.67;;;0.90;99.90;;;;;;4880890;29;20213;-83
2021/12/03 08:12:42;;;;;;;13.37;6.70;;;1.00;99.90;;;;;;4881180;29;20224;-82
2021/12/03 08:15:08;;;;;;;13.80;6.10;;;1.00;99.90;;;;;;4880624;29;20185;-82
2021/12/03 08:17:34;;;;;;;11.47;6.27;;;1.00;99.90;;;;;;4880929;29;20588;-84
2021/12/03 08:20:00;;;;;;;12.63;6.77;;;1.10;99.90;;;;;;4877996;29;20200;-83
2021/12/03 08:22:26;;;;;;;13.23;6.70;;;1.00;99.90;;;;;;4880697;29;20188;-82
2021/12/03 08:24:52;;;;;;;12.63;6.90;;;1.00;99.90;;;;;;4881654;29;20181;-82
2021/12/03 08:27:18;;;;;;;10.97;6.37;;;1.00;99.90;;;;;;4897697;29;20525;-82
2021/12/03 08:29:44;;;;;;;14.13;6.47;;;1.10;99.90;;;;;;4866857;29;20213;-82
2021/12/03 08:32:10;;;;;;;13.97;7.23;;;1.10;99.90;;;;;;4897980;29;20181;-83
2021/12/03 08:34:36;;;;;;;8.60;6.13;;;1.10;99.90;;;;;;4898669;29;20178;-82
2021/12/03 08:37:03;;;;;;;12.63;6.30;;;1.10;99.90;;;;;;4882559;29;20236;-82
2021/12/03 08:39:30;;;;;;;14.60;7.50;;;1.10;99.90;;;;;;4882552;29;20241;-83
2021/12/03 08:41:56;;;;;;;11.93;5.50;;;1.00;99.90;;;;;;4899542;29;20200;-82
2021/12/03 08:44:22;;;;;;;14.63;7.40;;;1.10;99.90;;;;;;4882165;29;20186;-82
2021/12/03 08:46:56;;;;;;;18.33;8.13;;;1.20;99.90;;;;;;4898733;29;20292;-82
2021/12/03 08:49:34;;;;;;;10.20;5.93;;;1.20;99.90;;;;;;4899203;29;20476;-82
2021/12/03 08:54:53;;;;;;;14.27;6.60;;;1.20;99.90;;;;;;4899238;29;20191;-82
2021/12/03 08:57:26;;;;;;;11.83;6.37;;;1.20;99.90;;;;;;4882014;29;20241;-82
2021/12/03 08:59:55;;;;;;;11.80;6.30;;;1.20;99.90;;;;;;4899281;29;20173;-81
2021/12/03 09:02:22;;;;;;;9.97;6.43;;;1.20;99.90;;;;;;4898779;29;20635;-83
2021/12/03 09:04:48;;;;;;;14.50;7.27;;;1.20;99.90;;;;;;4898649;29;20203;-82
2021/12/03 09:07:15;;;;;;;11.20;7.10;;;1.30;99.90;;;;;;4881416;29;20196;-82
2021/12/03 09:09:40;;;;;;;12.30;6.47;;;1.40;99.90;;;;;;4881375;29;20205;-81
2021/12/03 09:12:06;;;;;;;16.10;7.70;;;1.30;99.90;;;;;;4898392;29;20658;-83
2021/12/03 09:17:09;;;;;;;12.37;5.90;;;1.40;99.90;;;;;;4898725;29;20245;-81
2021/12/03 09:22:19;;;;;;;10.83;6.50;;;1.40;99.90;;;;;;4897095;29;20189;-85
2021/12/03 09:24:45;;;;;;;14.00;6.37;;;1.30;99.90;;;;;;4897688;29;20181;-82
2021/12/03 09:27:11;;;;;;;7.50;5.07;;;1.30;99.90;;;;;;4897152;29;20181;-81
2021/12/03 09:29:37;;;;;;;7.87;4.80;;;1.10;99.90;;;;;;4897063;29;20726;-82
2021/12/03 09:32:03;;;;;;;9.23;5.63;;;1.00;99.90;;;;;;4896875;29;20204;-82
2021/12/03 09:34:31;;;;;;;6.67;4.80;;;1.10;99.90;;;;;;4898094;29;20180;-81
2021/12/03 09:36:57;;;;;;;8.60;4.93;;;1.10;99.90;;;;;;4897142;29;20181;-83
2021/12/03 09:39:24;;;;;;;9.90;6.10;;;1.00;99.90;;;;;;4880247;29;20276;-83
2021/12/03 09:41:52;;;;;;;8.10;5.43;;;1.20;99.90;;;;;;4879841;29;20177;-83
2021/12/03 09:44:19;;;;;;;14.03;8.47;;;1.20;99.90;;;;;;4883658;29;20184;-82
2021/12/03 09:46:46;;;;;;;10.50;6.07;;;1.30;99.90;;;;;;4881345;29;20682;-83
2021/12/03 09:49:30;;;;;;;8.90;5.03;;;1.30;99.90;;;;;;4897094;29;20674;-85
2021/12/03 09:57:08;;;;;;;8.17;5.03;;;1.30;99.90;;;;;;4881089;29;20197;-83
2021/12/03 10:15:24;;;;;;;12.07;5.20;;;1.60;99.90;;;;;;4895804;29;20279;-82
2021/12/03 10:18:03;;;;;;;7.23;4.80;;;1.50;99.90;;;;;;4889435;29;20659;-81
2021/12/03 10:46:29;;;;;;;6.97;4.20;;;1.40;99.90;;;;;;4899773;29;20227;-82
2021/12/03 12:59:11;;;;;;;10.03;3.07;;;2.60;99.90;;;;;;4898824;29;20281;-84
2021/12/03 13:09:23;;;;;;;16.10;3.87;;;2.10;99.90;;;;;;4881771;29;20643;-85
2021/12/03 14:51:08;;;;;;;9.43;4.40;;;1.10;99.90;;;;;;4895493;29;20369;-84
2021/12/03 14:56:11;;;;;;;9.70;4.10;;;1.20;99.90;;;;;;4878523;29;20249;-80
2021/12/03 14:58:51;;;;;;;9.43;4.60;;;1.20;99.90;;;;;;4881860;29;20196;-81
2021/12/03 15:01:34;;;;;;;10.50;4.03;;;1.20;99.90;;;;;;4900034;29;20192;-81
2021/12/03 15:06:48;;;;;;;8.00;3.73;;;1.20;99.90;;;;;;4896905;29;20295;-81
2021/12/03 15:09:27;;;;;;;12.33;4.63;;;1.20;99.90;;;;;;4898470;29;20209;-81
2021/12/03 15:18:15;;;;;;;9.47;3.50;;;1.20;99.90;;;;;;4878850;29;20200;-80
2021/12/03 16:10:32;;;;;;;13.00;5.57;;;0.60;99.90;;;;;;4898555;29;20232;-80
2021/12/03 16:20:56;;;;;;;20.70;6.43;;;0.60;99.90;;;;;;4881417;29;20193;-80
2021/12/03 16:23:41;;;;;;;15.63;7.13;;;0.60;99.90;;;;;;4882676;29;20196;-82
2021/12/03 16:53:24;;;;;;;19.13;6.90;;;0.60;99.90;;;;;;4825148;29;20208;-83
2021/12/03 16:56:32;;;;;;;15.80;7.17;;;0.50;99.90;;;;;;4871770;29;20201;-81
2021/12/03 16:58:39;;;;;;;13.43;6.80;;;0.50;99.90;;;;;;4880310;29;20201;-82
2021/12/03 17:03:50;;;;;;;13.23;6.80;;;0.50;99.90;;;;;;4915478;29;20197;-84
2021/12/03 17:22:56;;;;;;;18.37;5.50;;;0.40;99.90;;;;;;4904763;29;20222;-88
2021/12/03 17:46:53;;;;;;;25.90;21.40;;;0.40;99.90;;;;;;4890954;29;20178;-81
2021/12/03 17:56:54;;;;;;;22.00;12.57;;;0.30;99.90;;;;;;4899015;29;20200;-82
2021/12/03 17:59:28;;;;;;;24.03;13.10;;;0.30;99.90;;;;;;4882131;29;20631;-81
2021/12/03 18:01:58;;;;;;;51.80;30.90;;;0.30;99.90;;;;;;4883151;29;20725;-81
2021/12/03 18:18:23;;;;;;;14.00;5.97;;;0.10;99.90;;;;;;4871031;29;20250;-81
2021/12/03 18:55:58;;;;;;;22.60;11.70;;;0.10;99.90;;;;;;4923109;29;20195;-82
2021/12/03 18:58:00;;;;;;;20.37;9.50;;;0.20;99.90;;;;;;4906505;29;20188;-88
2021/12/03 19:00:29;;;;;;;15.03;6.20;;;0.10;99.90;;;;;;4908008;29;20168;-86
2021/12/03 19:02:57;;;;;;;23.70;10.70;;;0.20;99.90;;;;;;4906420;29;20177;-84
2021/12/03 19:05:42;;;;;;;22.17;9.50;;;0.20;99.90;;;;;;4923565;29;20182;-88
2021/12/03 19:08:15;;;;;;;24.53;10.37;;;0.20;99.90;;;;;;4923711;29;20164;-89
2021/12/03 19:10:46;;;;;;;24.23;9.23;;;0.20;99.90;;;;;;4904613;29;20219;-81
2021/12/03 19:13:19;;;;;;;17.33;8.93;;;0.20;99.90;;;;;;4884936;29;20197;-82
2021/12/03 19:15:47;;;;;;;19.97;10.23;;;0.20;99.90;;;;;;4902900;29;20179;-81
2021/12/03 19:18:14;;;;;;;23.73;8.80;;;0.20;99.90;;;;;;4903398;29;20186;-81
2021/12/03 19:20:42;;;;;;;24.77;10.20;;;0.20;99.90;;;;;;4903016;29;20256;-82
2021/12/03 19:23:08;;;;;;;23.63;10.73;;;0.10;99.90;;;;;;4901138;29;20184;-81
2021/12/03 19:25:35;;;;;;;25.73;10.77;;;0.10;99.90;;;;;;4902144;29;20264;-81
2021/12/03 19:28:01;;;;;;;26.43;11.83;;;0.10;99.90;;;;;;4908565;29;20177;-80
2021/12/03 19:30:26;;;;;;;21.63;8.57;;;0.00;99.90;;;;;;4887124;29;20215;-81
2021/12/03 19:32:53;;;;;;;18.97;8.30;;;0.00;99.90;;;;;;4884293;29;20197;-81
2021/12/03 19:35:19;;;;;;;24.57;9.07;;;0.00;99.90;;;;;;4885000;29;20196;-79
2021/12/03 19:37:49;;;;;;;30.17;10.70;;;0.00;99.90;;;;;;4902207;29;20177;-81
2021/12/03 19:40:15;;;;;;;20.30;9.50;;;0.00;99.90;;;;;;4901878;29;20232;-82
2021/12/03 19:45:14;;;;;;;11.93;6.67;;;0.00;99.90;;;;;;4901272;29;20198;-81
2021/12/03 19:50:27;;;;;;;23.47;9.77;;;0.00;99.90;;;;;;4901868;29;20224;-81
2021/12/03 19:53:02;;;;;;;17.77;9.30;;;-0.10;99.90;;;;;;4900583;29;20183;-81
2021/12/03 19:55:28;;;;;;;23.20;9.30;;;-0.10;99.90;;;;;;4870366;29;20184;-81
2021/12/03 19:57:54;;;;;;;18.10;7.90;;;-0.10;99.90;;;;;;4884212;29;20195;-81
2021/12/03 20:00:22;;;;;;;20.27;8.87;;;-0.10;99.90;;;;;;4853206;29;20196;-81
2021/12/03 20:02:48;;;;;;;25.17;8.63;;;0.00;99.90;;;;;;4884739;29;20193;-80
2021/12/03 20:05:14;;;;;;;25.17;8.93;;;-0.10;99.90;;;;;;4884189;29;20185;-81
2021/12/03 20:07:40;;;;;;;21.93;8.83;;;-0.10;99.90;;;;;;4883230;29;20219;-80
2021/12/03 20:10:18;;;;;;;18.97;8.13;;;-0.10;99.90;;;;;;4883791;29;20224;-80
2021/12/03 20:12:47;;;;;;;23.37;8.83;;;-0.20;99.90;;;;;;4903982;29;20169;-82
2021/12/03 20:15:19;;;;;;;25.10;9.17;;;-0.20;99.90;;;;;;4881351;29;20280;-81
2021/12/03 20:17:53;;;;;;;22.03;9.27;;;-0.20;99.90;;;;;;4898947;29;20278;-81
2021/12/03 20:20:19;;;;;;;25.00;8.77;;;-0.20;99.90;;;;;;4885476;29;20203;-83
2021/12/03 20:25:38;;;;;;;19.87;8.43;;;-0.20;99.90;;;;;;4898552;29;20220;-81
2021/12/03 20:28:08;;;;;;;40.53;19.30;;;-0.20;99.90;;;;;;4886309;29;20539;-81
2021/12/03 20:38:07;;;;;;;175.83;80.93;;;-0.20;99.90;;;;;;4899692;29;20602;-80
2021/12/03 20:40:34;;;;;;;87.03;49.70;;;1.20;99.90;;;;;;4867150;29;20554;-81
2021/12/03 20:53:32;;;;;;;51.53;19.90;;;-0.30;99.90;;;;;;4897801;29;20192;-85
2021/12/03 21:09:25;;;;;;;67.40;29.90;;;-0.40;99.90;;;;;;4899024;29;20273;-81
2021/12/03 21:11:56;;;;;;;49.47;22.53;;;-0.40;99.90;;;;;;4882184;29;20187;-81
2021/12/03 21:14:26;;;;;;;45.73;20.77;;;-0.50;99.90;;;;;;4882878;29;20190;-81
2021/12/03 21:19:58;;;;;;;40.30;20.03;;;-0.50;99.90;;;;;;4832900;29;20676;-81
2021/12/03 21:22:29;;;;;;;32.90;14.73;;;-0.50;99.90;;;;;;4885972;29;20170;-80
2021/12/03 21:24:59;;;;;;;28.20;11.00;;;-0.50;99.90;;;;;;4886272;29;20179;-81
2021/12/03 21:27:32;;;;;;;35.67;12.70;;;-0.50;99.90;;;;;;4885293;29;20643;-81
2021/12/03 21:30:14;;;;;;;23.50;10.17;;;-0.50;99.90;;;;;;4867908;29;20705;-81
2021/12/03 21:32:54;;;;;;;29.30;13.00;;;-0.60;99.90;;;;;;4900816;29;20544;-80
2021/12/03 21:43:32;;;;;;;22.50;11.73;;;-0.60;99.90;;;;;;4903367;29;20281;-80
2021/12/03 21:45:58;;;;;;;22.53;10.60;;;-0.60;99.90;;;;;;4869056;29;20190;-81